Time,TemperatureF,DewpointF,PressureIn,WindDirection,WindDirectionDegrees,WindSpeedMPH,WindSpeedGustMPH,Humidity,HourlyPrecipIn,Conditions,Clouds,dailyrainin,SoftwareType,DateUTC
2013-02-23 00:00:00,13.1,11.2,30.10,NNW,338,0.0,0.0,92,0.00,FEW,FEW,0.00,WeatherDisplay:10.37,2013-02-23 06:00:00,
2013-02-23 00:06:00,12.9,11.0,30.10,NNW,338,0.0,0.0,92,0.00,CLR,CLR,0.00,WeatherDisplay:10.37,2013-02-23 06:06:00,
2013-02-23 00:12:00,12.7,10.8,30.10,NNW,338,0.0,0.0,92,0.00,CLR,CLR,0.00,WeatherDisplay:10.37,2013-02-23 06:12:00,
2013-02-23 00:21:00,12.4,10.5,30.10,NNW,338,0.0,0.0,92,0.00,CLR,CLR,0.00,WeatherDisplay:10.37,2013-02-23 06:21:00,
2013-02-23 00:27:00,12.1,10.4,30.09,NNW,338,0.0,0.0,93,0.00,CLR,CLR,0.00,WeatherDisplay:10.37,2013-02-23 06:27:00,
2013-02-23 00:33:00,12.0,10.4,30.09,NNW,338,0.0,0.0,93,0.00,CLR,CLR,0.00,WeatherDisplay:10.37,2013-02-23 06:33:00,
2013-02-23 00:39:00,12.0,10.4,30.09,NNW,338,0.0,0.0,93,0.00,CLR,CLR,0.00,WeatherDisplay:10.37,2013-02-23 06:39:00,
2013-02-23 00:45:00,12.0,10.4,30.09,NNW,338,0.0,0.0,93,0.00,CLR,CLR,0.00,WeatherDisplay:10.37,2013-02-23 06:45:00,
2013-02-23 00:51:00,12.0,10.4,30.09,NNW,338,0.0,0.0,93,0.00,CLR,CLR,0.00,WeatherDisplay:10.37,2013-02-23 06:51:00,
2013-02-23 00:57:00,12.0,10.4,30.09,NNW,338,0.0,0.0,93,0.00,CLR,CLR,0.00,WeatherDisplay:10.37,2013-02-23 06:57:00,
2013-02-23 01:03:00,12.0,10.4,30.09,NNW,338,0.0,0.0,93,0.00,CLR,CLR,0.00,WeatherDisplay:10.37,2013-02-23 07:03:00,
2013-02-23 01:09:00,12.0,10.4,30.09,NNW,338,0.0,0.0,93,0.00,CLR,CLR,0.00,WeatherDisplay:10.37,2013-02-23 07:09:00,
2013-02-23 01:15:00,12.0,10.4,30.09,NNW,338,0.0,0.0,93,0.00,CLR,CLR,0.00,WeatherDisplay:10.37,2013-02-23 07:15:00,
2013-02-23 01:21:00,12.0,10.4,30.09,NNW,338,0.0,0.0,93,0.00,CLR,CLR,0.00,WeatherDisplay:10.37,2013-02-23 07:21:00,
2013-02-23 01:27:00,12.0,10.4,30.09,NNW,338,0.0,0.0,93,0.00,CLR,CLR,0.00,WeatherDisplay:10.37,2013-02-23 07:27:00,
2013-02-23 01:33:00,12.0,10.4,30.09,NNW,338,0.0,0.0,93,0.00,CLR,CLR,0.00,WeatherDisplay:10.37,2013-02-23 07:33:00,
2013-02-23 01:39:00,12.0,10.4,30.09,NNW,338,0.0,0.0,93,0.00,CLR,CLR,0.00,WeatherDisplay:10.37,2013-02-23 07:39:00,
2013-02-23 01:45:00,12.0,10.4,30.09,NNW,338,0.0,0.0,93,0.00,CLR,CLR,0.00,WeatherDisplay:10.37,2013-02-23 07:45:00,
2013-02-23 01:51:00,12.0,10.4,30.09,NNW,338,0.0,0.0,93,0.00,CLR,CLR,0.00,WeatherDisplay:10.37,2013-02-23 07:51:00,
2013-02-23 01:57:00,12.0,10.4,30.09,NNW,338,0.0,0.0,93,0.00,CLR,CLR,0.00,WeatherDisplay:10.37,2013-02-23 07:57:00,
2013-02-23 02:03:00,12.0,10.4,30.09,NNW,338,0.0,0.0,93,0.00,CLR,CLR,0.00,WeatherDisplay:10.37,2013-02-23 08:03:00,
2013-02-23 02:09:00,12.0,10.4,30.09,NNW,338,0.0,0.0,93,0.00,CLR,CLR,0.00,WeatherDisplay:10.37,2013-02-23 08:09:00,
2013-02-23 02:15:00,10.2,8.8,30.07,NNW,338,0.0,0.0,94,0.00,CLR,CLR,0.00,WeatherDisplay:10.37,2013-02-23 08:15:00,
2013-02-23 02:21:00,10.4,9.3,30.07,NNW,338,0.0,0.0,95,0.00,CLR,CLR,0.00,WeatherDisplay:10.37,2013-02-23 08:21:00,
2013-02-23 02:27:00,10.9,9.7,30.08,NNW,338,0.0,0.0,95,0.00,CLR,CLR,0.00,WeatherDisplay:10.37,2013-02-23 08:27:00,
2013-02-23 02:33:00,11.3,10.1,30.08,NNW,338,0.0,0.0,95,0.00,CLR,CLR,0.00,WeatherDisplay:10.37,2013-02-23 08:33:00,
2013-02-23 02:39:00,11.7,10.5,30.07,NNW,338,0.0,0.0,95,0.00,CLR,CLR,0.00,WeatherDisplay:10.37,2013-02-23 08:39:00,
2013-02-23 02:45:00,11.7,10.5,30.07,NNW,338,0.0,0.0,95,0.00,CLR,CLR,0.00,WeatherDisplay:10.37,2013-02-23 08:45:00,
2013-02-23 02:51:00,11.7,10.5,30.06,NNW,338,0.0,0.0,95,0.00,CLR,CLR,0.00,WeatherDisplay:10.37,2013-02-23 08:51:00,
2013-02-23 02:57:00,11.7,10.5,30.06,NNW,338,0.0,0.0,95,0.00,CLR,CLR,0.00,WeatherDisplay:10.37,2013-02-23 08:57:00,
2013-02-23 03:03:00,11.5,10.3,30.06,NNW,338,0.0,0.0,95,0.00,CLR,CLR,0.00,WeatherDisplay:10.37,2013-02-23 09:03:00,
2013-02-23 03:09:00,11.3,10.1,30.06,NNW,338,0.0,0.0,95,0.00,CLR,CLR,0.00,WeatherDisplay:10.37,2013-02-23 09:09:00,
2013-02-23 03:15:00,11.3,10.1,30.06,NNW,338,0.0,0.0,95,0.00,CLR,CLR,0.00,WeatherDisplay:10.37,2013-02-23 09:15:00,
2013-02-23 03:21:00,11.3,10.1,30.06,NNW,338,0.0,0.0,95,0.00,CLR,CLR,0.00,WeatherDisplay:10.37,2013-02-23 09:21:00,
2013-02-23 03:27:00,11.3,10.1,30.05,NNW,338,0.0,0.0,95,0.00,CLR,CLR,0.00,WeatherDisplay:10.37,2013-02-23 09:27:00,
2013-02-23 03:33:00,11.3,10.1,30.05,NNW,338,0.0,0.0,95,0.00,CLR,CLR,0.00,WeatherDisplay:10.37,2013-02-23 09:33:00,
2013-02-23 03:39:00,11.3,10.1,30.04,NNW,338,3.0,5.0,95,0.00,CLR,CLR,0.00,WeatherDisplay:10.37,2013-02-23 09:39:00,
2013-02-23 03:45:00,11.5,10.3,30.04,NNW,338,0.0,4.0,95,0.00,CLR,CLR,0.00,WeatherDisplay:10.37,2013-02-23 09:45:00,
2013-02-23 03:51:00,11.3,10.1,30.03,NNW,338,0.0,0.0,95,0.00,CLR,CLR,0.00,WeatherDisplay:10.37,2013-02-23 09:51:00,
2013-02-23 03:57:00,11.2,10.1,30.03,NNW,338,0.0,0.0,95,0.00,CLR,CLR,0.00,WeatherDisplay:10.37,2013-02-23 09:57:00,
2013-02-23 04:03:00,10.9,9.7,30.03,NNW,338,0.0,0.0,95,0.00,CLR,CLR,0.00,WeatherDisplay:10.37,2013-02-23 10:03:00,
2013-02-23 04:09:00,10.8,9.7,30.03,NNW,338,0.0,0.0,95,0.00,CLR,CLR,0.00,WeatherDisplay:10.37,2013-02-23 10:09:00,
2013-02-23 04:15:00,10.6,9.2,30.02,NNW,338,0.0,0.0,94,0.00,CLR,CLR,0.00,WeatherDisplay:10.37,2013-02-23 10:15:00,
2013-02-23 04:21:00,10.4,9.0,30.02,NNW,338,0.0,0.0,94,0.00,CLR,CLR,0.00,WeatherDisplay:10.37,2013-02-23 10:21:00,
2013-02-23 04:27:00,10.2,8.8,30.02,NNW,338,0.0,0.0,94,0.00,CLR,CLR,0.00,WeatherDisplay:10.37,2013-02-23 10:27:00,
2013-02-23 04:33:00,10.0,8.6,30.02,NNW,338,0.0,0.0,94,0.00,CLR,CLR,0.00,WeatherDisplay:10.37,2013-02-23 10:33:00,
2013-02-23 04:39:00,10.0,8.6,30.01,NNW,338,0.0,0.0,94,0.00,CLR,CLR,0.00,WeatherDisplay:10.37,2013-02-23 10:39:00,
2013-02-23 04:45:00,9.9,8.5,30.01,NNW,338,0.0,0.0,94,0.00,CLR,CLR,0.00,WeatherDisplay:10.37,2013-02-23 10:45:00,
2013-02-23 04:51:00,9.7,8.3,30.01,NNW,338,0.0,0.0,94,0.00,CLR,CLR,0.00,WeatherDisplay:10.37,2013-02-23 10:51:00,
2013-02-23 04:57:00,9.5,8.1,30.01,NNW,338,0.0,0.0,94,0.00,CLR,CLR,0.00,WeatherDisplay:10.37,2013-02-23 10:57:00,
2013-02-23 05:03:00,9.3,7.9,30.00,NNW,338,0.0,0.0,94,0.04,RA,RA,0.04,WeatherDisplay:10.37,2013-02-23 11:03:00,
2013-02-23 05:09:00,9.3,7.9,30.00,NNW,338,0.0,0.0,94,0.00,RA,RA,0.04,WeatherDisplay:10.37,2013-02-23 11:09:00,
2013-02-23 05:15:00,9.2,7.8,30.00,NNW,338,0.0,0.0,94,0.00,FEW,FEW,0.04,WeatherDisplay:10.37,2013-02-23 11:15:00,
2013-02-23 05:21:00,9.1,7.7,30.00,NNW,338,0.0,0.0,94,0.00,FEW,FEW,0.04,WeatherDisplay:10.37,2013-02-23 11:21:00,
2013-02-23 05:27:00,9.1,7.7,30.00,NNW,338,0.0,0.0,94,0.00,FEW,FEW,0.04,WeatherDisplay:10.37,2013-02-23 11:27:00,
2013-02-23 05:33:00,9.1,7.7,30.00,NNW,338,0.0,0.0,94,0.00,FEW,FEW,0.04,WeatherDisplay:10.37,2013-02-23 11:33:00,
2013-02-23 05:39:00,9.1,7.7,30.00,NNW,338,0.0,0.0,94,0.00,FEW,FEW,0.04,WeatherDisplay:10.37,2013-02-23 11:39:00,
2013-02-23 05:45:00,9.5,8.4,30.00,NNW,338,0.0,0.0,95,0.00,FEW,FEW,0.04,WeatherDisplay:10.37,2013-02-23 11:45:00,
2013-02-23 05:51:00,10.0,8.8,30.01,NNW,338,0.0,0.0,95,0.00,FEW,FEW,0.04,WeatherDisplay:10.37,2013-02-23 11:51:00,
2013-02-23 05:57:00,10.2,9.1,30.01,NNW,338,0.0,0.0,95,0.00,FEW,FEW,0.04,WeatherDisplay:10.37,2013-02-23 11:57:00,
2013-02-23 06:03:00,10.2,9.1,30.02,NNW,338,0.0,0.0,95,0.00,BKN,BKN,0.04,WeatherDisplay:10.37,2013-02-23 12:03:00,
2013-02-23 06:09:00,10.2,9.1,30.02,NNW,338,0.0,0.0,95,0.00,BKN,BKN,0.04,WeatherDisplay:10.37,2013-02-23 12:09:00,
2013-02-23 06:15:00,9.7,8.6,30.02,NNW,338,0.0,0.0,95,0.00,BKN,BKN,0.04,WeatherDisplay:10.37,2013-02-23 12:15:00,
2013-02-23 06:21:00,9.7,8.6,30.02,NNW,338,0.0,0.0,95,0.00,BKN,BKN,0.04,WeatherDisplay:10.37,2013-02-23 12:21:00,
2013-02-23 06:27:00,9.7,8.6,30.01,NNW,338,0.0,0.0,95,0.00,BKN,BKN,0.04,WeatherDisplay:10.37,2013-02-23 12:27:00,
2013-02-23 06:33:00,9.7,8.6,30.01,NNW,338,0.0,0.0,95,0.00,BKN,BKN,0.04,WeatherDisplay:10.37,2013-02-23 12:33:00,
2013-02-23 06:39:00,9.5,8.4,30.01,NNW,338,0.0,0.0,95,0.00,BKN,BKN,0.04,WeatherDisplay:10.37,2013-02-23 12:39:00,
2013-02-23 06:45:00,9.4,8.2,30.01,NNW,338,0.0,0.0,95,0.00,BKN,BKN,0.04,WeatherDisplay:10.37,2013-02-23 12:45:00,
2013-02-23 06:51:00,9.1,7.7,30.01,NNW,338,0.0,0.0,94,0.00,BKN,BKN,0.04,WeatherDisplay:10.37,2013-02-23 12:51:00,
2013-02-23 06:57:00,8.8,7.4,30.01,NNW,338,0.0,0.0,94,0.00,BKN,BKN,0.04,WeatherDisplay:10.37,2013-02-23 12:57:00,
2013-02-23 07:03:00,8.6,7.2,30.01,NNW,338,0.0,0.0,94,0.00,SCT,SCT,0.04,WeatherDisplay:10.37,2013-02-23 13:03:00,
2013-02-23 07:09:00,8.4,7.0,30.01,NNW,338,0.0,0.0,94,0.00,SCT,SCT,0.04,WeatherDisplay:10.37,2013-02-23 13:09:00,
2013-02-23 07:15:00,8.3,7.0,30.01,NNW,338,0.0,0.0,94,0.00,SCT,SCT,0.04,WeatherDisplay:10.37,2013-02-23 13:15:00,
2013-02-23 07:21:00,8.6,7.3,30.01,NNW,338,0.0,0.0,94,0.00,SCT,SCT,0.04,WeatherDisplay:10.37,2013-02-23 13:21:00,
2013-02-23 07:27:00,8.8,7.4,30.01,NNW,338,0.0,0.0,94,0.00,SCT,SCT,0.04,WeatherDisplay:10.37,2013-02-23 13:27:00,
2013-02-23 07:33:00,9.0,7.6,30.01,NNW,338,0.0,0.0,94,0.00,SCT,SCT,0.04,WeatherDisplay:10.37,2013-02-23 13:33:00,
2013-02-23 07:39:00,9.0,7.6,30.01,NNW,338,0.0,0.0,94,0.00,SCT,SCT,0.04,WeatherDisplay:10.37,2013-02-23 13:39:00,
2013-02-23 07:45:00,9.5,8.1,30.01,NNW,338,0.0,0.0,94,0.00,SCT,SCT,0.04,WeatherDisplay:10.37,2013-02-23 13:45:00,
2013-02-23 07:51:00,9.7,8.3,30.02,NNW,338,0.0,0.0,94,0.00,SCT,SCT,0.04,WeatherDisplay:10.37,2013-02-23 13:51:00,
2013-02-23 07:57:00,9.9,8.5,30.02,NNW,338,0.0,0.0,94,0.00,SCT,SCT,0.04,WeatherDisplay:10.37,2013-02-23 13:57:00,
2013-02-23 08:03:00,10.2,8.8,30.02,NNW,338,3.0,5.0,94,0.00,FEW,FEW,0.04,WeatherDisplay:10.37,2013-02-23 14:03:00,
2013-02-23 08:09:00,10.2,8.8,30.02,NNW,338,7.0,8.0,94,0.00,FEW,FEW,0.04,WeatherDisplay:10.37,2013-02-23 14:09:00,
2013-02-23 08:15:00,10.8,9.4,30.02,NNW,338,6.0,7.0,94,0.00,FEW,FEW,0.04,WeatherDisplay:10.37,2013-02-23 14:15:00,
2013-02-23 08:21:00,11.5,10.1,30.02,NNW,338,5.0,5.0,94,0.00,FEW,FEW,0.04,WeatherDisplay:10.37,2013-02-23 14:21:00,
2013-02-23 08:27:00,12.2,10.8,30.02,NNW,338,6.0,7.0,94,0.00,FEW,FEW,0.04,WeatherDisplay:10.37,2013-02-23 14:27:00,
2013-02-23 08:33:00,12.7,11.3,30.02,NNW,338,1.0,5.0,94,0.00,FEW,FEW,0.04,WeatherDisplay:10.37,2013-02-23 14:33:00,
2013-02-23 08:39:00,12.9,11.5,30.02,NNW,338,6.0,7.0,94,0.00,FEW,FEW,0.04,WeatherDisplay:10.37,2013-02-23 14:39:00,
2013-02-23 08:45:00,13.6,12.2,30.02,SE,140,3.0,7.0,94,0.00,FEW,FEW,0.04,WeatherDisplay:10.37,2013-02-23 14:45:00,
2013-02-23 08:51:00,14.5,13.1,30.02,SE,143,5.0,7.0,94,0.00,FEW,FEW,0.04,WeatherDisplay:10.37,2013-02-23 14:51:00,
2013-02-23 08:57:00,14.9,13.2,30.02,SSE,149,5.0,6.0,93,0.00,FEW,FEW,0.04,WeatherDisplay:10.37,2013-02-23 14:57:00,
2013-02-23 09:03:00,15.3,13.6,30.03,SE,131,3.0,4.0,93,0.00,FEW,FEW,0.04,WeatherDisplay:10.37,2013-02-23 15:03:00,
2013-02-23 09:09:00,15.8,13.9,30.03,North,360,5.0,7.0,92,0.00,FEW,FEW,0.04,WeatherDisplay:10.37,2013-02-23 15:09:00,
2013-02-23 09:15:00,16.2,14.1,30.02,North,360,3.0,7.0,91,0.00,FEW,FEW,0.04,WeatherDisplay:10.37,2013-02-23 15:15:00,
2013-02-23 09:21:00,17.1,14.4,30.02,North,360,6.0,8.0,89,0.00,FEW,FEW,0.04,WeatherDisplay:10.37,2013-02-23 15:21:00,
2013-02-23 09:27:00,17.4,14.5,30.02,NNW,334,7.0,9.0,88,0.00,FEW,FEW,0.04,WeatherDisplay:10.37,2013-02-23 15:27:00,
2013-02-23 09:33:00,18.0,14.8,30.02,NW,323,5.0,6.0,87,0.00,FEW,FEW,0.04,WeatherDisplay:10.37,2013-02-23 15:33:00,
2013-02-23 09:39:00,17.3,13.9,30.03,SW,230,8.0,9.0,86,0.00,FEW,FEW,0.04,WeatherDisplay:10.37,2013-02-23 15:39:00,
2013-02-23 09:45:00,17.8,14.3,30.03,South,177,7.0,9.0,86,0.00,FEW,FEW,0.04,WeatherDisplay:10.37,2013-02-23 15:45:00,
2013-02-23 09:51:00,18.3,14.8,30.04,NW,307,6.0,8.0,86,0.00,FEW,FEW,0.04,WeatherDisplay:10.37,2013-02-23 15:51:00,
2013-02-23 09:57:00,19.0,15.0,30.04,NW,315,3.0,6.0,84,0.00,FEW,FEW,0.04,WeatherDisplay:10.37,2013-02-23 15:57:00,
2013-02-23 10:03:00,20.0,15.9,30.04,NW,315,2.0,6.0,84,0.00,FEW,FEW,0.04,WeatherDisplay:10.37,2013-02-23 16:03:00,
2013-02-23 10:09:00,21.2,16.6,30.04,NNW,339,7.0,9.0,82,0.00,FEW,FEW,0.04,WeatherDisplay:10.37,2013-02-23 16:09:00,
2013-02-23 10:15:00,21.1,16.5,30.03,WNW,296,3.0,12.0,82,0.00,RA,RA,0.00,WeatherDisplay:10.37,2013-02-23 16:15:00,
2013-02-23 10:21:00,21.7,16.8,30.03,WSW,245,5.0,9.0,81,0.00,FEW,FEW,0.00,WeatherDisplay:10.37,2013-02-23 16:21:00,
2013-02-23 10:27:00,22.0,17.1,30.04,North,354,5.0,8.0,81,0.00,FEW,FEW,0.00,WeatherDisplay:10.37,2013-02-23 16:27:00,
2013-02-23 10:33:00,23.8,18.2,30.04,NW,312,5.0,9.0,79,0.00,FEW,FEW,0.00,WeatherDisplay:10.37,2013-02-23 16:33:00,
2013-02-23 10:39:00,24.7,18.5,30.03,West,273,8.0,9.0,77,0.00,FEW,FEW,0.00,WeatherDisplay:10.37,2013-02-23 16:39:00,
2013-02-23 10:45:00,26.6,19.4,30.03,NNW,331,6.0,8.0,74,0.00,FEW,FEW,0.00,WeatherDisplay:10.37,2013-02-23 16:45:00,
2013-02-23 10:51:00,28.2,19.3,30.03,NNW,331,7.0,9.0,69,0.00,FEW,FEW,0.00,WeatherDisplay:10.37,2013-02-23 16:51:00,
2013-02-23 10:57:00,29.6,20.7,30.03,North,4,5.0,6.0,69,0.00,FEW,FEW,0.00,WeatherDisplay:10.37,2013-02-23 16:57:00,
2013-02-23 11:03:00,30.3,20.3,30.03,SSE,154,5.0,9.0,66,0.00,FEW,FEW,0.00,WeatherDisplay:10.37,2013-02-23 17:03:00,
2013-02-23 11:09:00,31.1,21.0,30.03,SE,144,6.0,7.0,66,0.00,FEW,FEW,0.00,WeatherDisplay:10.37,2013-02-23 17:09:00,
2013-02-23 11:15:00,31.6,20.8,30.02,SSE,164,5.0,8.0,64,0.00,FEW,FEW,0.00,WeatherDisplay:10.37,2013-02-23 17:15:00,
2013-02-23 11:21:00,31.6,21.2,30.02,SW,223,3.0,5.0,65,0.00,FEW,FEW,0.00,WeatherDisplay:10.37,2013-02-23 17:21:00,
2013-02-23 11:27:00,32.1,21.3,30.02,WNW,302,2.0,7.0,64,0.00,FEW,FEW,0.00,WeatherDisplay:10.37,2013-02-23 17:27:00,
2013-02-23 11:33:00,34.3,21.0,30.02,NNW,338,6.0,6.0,58,0.00,FEW,FEW,0.00,WeatherDisplay:10.37,2013-02-23 17:33:00,
2013-02-23 11:39:00,33.4,21.4,30.02,NW,325,5.0,6.0,61,0.00,FEW,FEW,0.00,WeatherDisplay:10.37,2013-02-23 17:39:00,
2013-02-23 11:45:00,34.0,22.4,30.02,WNW,283,2.0,4.0,62,0.00,FEW,FEW,0.00,WeatherDisplay:10.37,2013-02-23 17:45:00,
2013-02-23 11:51:00,35.3,22.0,30.02,West,279,3.0,7.0,58,0.00,FEW,FEW,0.00,WeatherDisplay:10.37,2013-02-23 17:51:00,
2013-02-23 11:57:00,34.7,22.2,30.02,WSW,258,3.0,7.0,60,0.00,FEW,FEW,0.00,WeatherDisplay:10.37,2013-02-23 17:57:00,
2013-02-23 12:03:00,37.7,23.4,30.01,SW,231,3.0,7.0,56,0.00,FEW,FEW,0.00,WeatherDisplay:10.37,2013-02-23 18:03:00,
2013-02-23 12:09:00,38.2,23.5,30.01,South,184,2.0,6.0,55,0.00,FEW,FEW,0.00,WeatherDisplay:10.37,2013-02-23 18:09:00,
2013-02-23 12:15:00,37.7,22.6,30.00,SSW,192,5.0,8.0,54,0.00,FEW,FEW,0.00,WeatherDisplay:10.37,2013-02-23 18:15:00,
2013-02-23 12:21:00,37.8,23.1,30.00,SSW,203,0.0,0.0,55,0.00,FEW,FEW,0.00,WeatherDisplay:10.37,2013-02-23 18:21:00,
2013-02-23 12:27:00,38.1,22.9,30.01,SSE,157,6.0,8.0,54,0.00,FEW,FEW,0.00,WeatherDisplay:10.37,2013-02-23 18:27:00,
2013-02-23 12:33:00,38.3,23.5,30.01,South,184,3.0,8.0,55,0.00,FEW,FEW,0.00,WeatherDisplay:10.37,2013-02-23 18:33:00,
2013-02-23 12:39:00,37.4,22.7,30.00,South,180,7.0,9.0,55,0.00,FEW,FEW,0.00,WeatherDisplay:10.37,2013-02-23 18:39:00,
2013-02-23 12:45:00,36.7,22.9,30.00,SSE,159,7.0,9.0,57,0.00,FEW,FEW,0.00,WeatherDisplay:10.37,2013-02-23 18:45:00,
2013-02-23 12:51:00,37.0,23.2,30.00,SSE,158,6.0,9.0,57,0.00,FEW,FEW,0.00,WeatherDisplay:10.37,2013-02-23 18:51:00,
2013-02-23 12:57:00,38.3,23.5,30.00,ESE,115,6.0,10.0,55,0.00,FEW,FEW,0.00,WeatherDisplay:10.37,2013-02-23 18:57:00,
2013-02-23 13:03:00,37.6,23.3,29.99,South,182,9.0,12.0,56,0.00,FEW,FEW,0.00,WeatherDisplay:10.37,2013-02-23 19:03:00,
2013-02-23 13:09:00,36.4,23.0,29.99,South,174,8.0,9.0,58,0.00,FEW,FEW,0.00,WeatherDisplay:10.37,2013-02-23 19:09:00,
2013-02-23 13:15:00,37.0,23.1,29.98,SSE,154,8.0,12.0,57,0.00,FEW,FEW,0.00,WeatherDisplay:10.37,2013-02-23 19:15:00,
2013-02-23 13:21:00,36.4,22.6,29.98,SE,145,9.0,12.0,57,0.00,FEW,FEW,0.00,WeatherDisplay:10.37,2013-02-23 19:21:00,
2013-02-23 13:27:00,37.0,23.6,29.98,SSE,153,8.0,10.0,58,0.00,FEW,FEW,0.00,WeatherDisplay:10.37,2013-02-23 19:27:00,
2013-02-23 13:33:00,37.4,24.0,29.98,SSE,158,8.0,9.0,58,0.00,FEW,FEW,0.00,WeatherDisplay:10.37,2013-02-23 19:33:00,
2013-02-23 13:39:00,38.6,24.2,29.97,SSE,152,6.0,8.0,56,0.00,FEW,FEW,0.00,WeatherDisplay:10.37,2013-02-23 19:39:00,
2013-02-23 13:45:00,37.9,24.0,29.97,NNW,346,9.0,14.0,57,0.00,FEW,FEW,0.00,WeatherDisplay:10.37,2013-02-23 19:45:00,
2013-02-23 13:51:00,37.0,23.6,29.98,SSE,167,7.0,7.0,58,0.00,FEW,FEW,0.00,WeatherDisplay:10.37,2013-02-23 19:51:00,
2013-02-23 13:57:00,37.7,24.2,29.98,South,180,7.0,12.0,58,0.00,FEW,FEW,0.00,WeatherDisplay:10.37,2013-02-23 19:57:00,
2013-02-23 14:03:00,38.4,24.5,29.97,SSE,153,8.0,9.0,57,0.00,FEW,FEW,0.00,WeatherDisplay:10.37,2013-02-23 20:03:00,
2013-02-23 14:09:00,37.9,24.5,29.97,SSE,148,6.0,8.0,58,0.00,FEW,FEW,0.00,WeatherDisplay:10.37,2013-02-23 20:09:00,
2013-02-23 14:15:00,37.0,24.0,29.96,SSE,147,9.0,12.0,59,0.00,FEW,FEW,0.00,WeatherDisplay:10.37,2013-02-23 20:15:00,
2013-02-23 14:21:00,37.3,23.9,29.96,SSE,159,8.0,12.0,58,0.00,FEW,FEW,0.00,WeatherDisplay:10.37,2013-02-23 20:21:00,
2013-02-23 14:27:00,37.8,23.9,29.96,SSE,168,9.0,13.0,57,0.00,FEW,FEW,0.00,WeatherDisplay:10.37,2013-02-23 20:27:00,
2013-02-23 14:33:00,36.5,23.5,29.96,SE,132,12.0,14.0,59,0.00,FEW,FEW,0.00,WeatherDisplay:10.37,2013-02-23 20:33:00,
2013-02-23 14:39:00,37.8,24.8,29.96,SSE,150,5.0,8.0,59,0.01,RA,RA,0.02,WeatherDisplay:10.37,2013-02-23 20:39:00,
2013-02-23 14:45:00,38.0,24.5,29.96,WNW,292,6.0,12.0,58,0.00,RA,RA,0.03,WeatherDisplay:10.37,2013-02-23 20:45:00,
2013-02-23 14:51:00,37.9,24.0,29.95,SE,146,7.0,10.0,57,0.01,RA,RA,0.05,WeatherDisplay:10.37,2013-02-23 20:51:00,
2013-02-23 14:57:00,37.1,24.1,29.95,SSE,151,9.0,12.0,59,0.01,RA,RA,0.06,WeatherDisplay:10.37,2013-02-23 20:57:00,
2013-02-23 15:03:00,37.0,24.0,29.94,SSE,154,10.0,13.0,59,0.00,RA,RA,0.07,WeatherDisplay:10.37,2013-02-23 21:03:00,
2013-02-23 15:09:00,38.0,24.9,29.94,SSE,156,7.0,8.0,59,0.01,RA,RA,0.09,WeatherDisplay:10.37,2013-02-23 21:09:00,
2013-02-23 15:15:00,37.1,24.1,29.93,SSE,166,9.0,13.0,59,0.00,RA,RA,0.09,WeatherDisplay:10.37,2013-02-23 21:15:00,
2013-02-23 15:21:00,37.0,24.0,29.93,ESE,122,7.0,9.0,59,0.00,RA,RA,0.10,WeatherDisplay:10.37,2013-02-23 21:21:00,
2013-02-23 15:27:00,36.7,23.8,29.93,SE,143,8.0,12.0,59,0.00,RA,RA,0.11,WeatherDisplay:10.37,2013-02-23 21:27:00,
2013-02-23 15:33:00,38.0,24.9,29.93,South,171,8.0,13.0,59,0.01,RA,RA,0.12,WeatherDisplay:10.37,2013-02-23 21:33:00,
2013-02-23 15:39:00,36.9,24.7,29.93,SE,137,9.0,13.0,61,0.00,RA,RA,0.13,WeatherDisplay:10.37,2013-02-23 21:39:00,
2013-02-23 15:45:00,37.6,25.0,29.93,SSE,165,7.0,9.0,60,0.01,RA,RA,0.14,WeatherDisplay:10.37,2013-02-23 21:45:00,
2013-02-23 15:51:00,36.7,24.5,29.93,SSE,160,9.0,12.0,61,0.01,RA,RA,0.15,WeatherDisplay:10.37,2013-02-23 21:51:00,
2013-02-23 15:57:00,36.9,25.1,29.93,SSE,155,7.0,9.0,62,0.00,RA,RA,0.15,WeatherDisplay:10.37,2013-02-23 21:57:00,
2013-02-23 16:03:00,35.5,24.9,29.92,SSE,151,9.0,14.0,65,0.00,FEW,FEW,0.15,WeatherDisplay:10.37,2013-02-23 22:03:00,
2013-02-23 16:09:00,36.0,24.6,29.92,SSE,151,8.0,8.0,63,0.00,RA,RA,0.16,WeatherDisplay:10.37,2013-02-23 22:09:00,
2013-02-23 16:15:00,36.5,25.5,29.92,SE,141,8.0,12.0,64,0.00,FEW,FEW,0.16,WeatherDisplay:10.37,2013-02-23 22:15:00,
2013-02-23 16:21:00,35.1,24.9,29.92,SSE,165,12.0,14.0,66,0.00,RA,RA,0.17,WeatherDisplay:10.37,2013-02-23 22:21:00,
2013-02-23 16:27:00,35.4,25.1,29.93,SE,146,8.0,10.0,66,0.00,FEW,FEW,0.17,WeatherDisplay:10.37,2013-02-23 22:27:00,
2013-02-23 16:33:00,35.0,24.8,29.93,SE,145,10.0,14.0,66,0.00,FEW,FEW,0.17,WeatherDisplay:10.37,2013-02-23 22:33:00,
2013-02-23 16:39:00,35.1,25.2,29.92,SSE,147,6.0,10.0,67,0.00,FEW,FEW,0.17,WeatherDisplay:10.37,2013-02-23 22:39:00,
2013-02-23 16:45:00,34.9,25.0,29.92,SSE,163,8.0,9.0,67,0.00,FEW,FEW,0.17,WeatherDisplay:10.37,2013-02-23 22:45:00,
2013-02-23 16:51:00,34.9,25.0,29.92,SSE,148,7.0,9.0,67,0.00,FEW,FEW,0.17,WeatherDisplay:10.37,2013-02-23 22:51:00,
2013-02-23 16:57:00,34.9,25.0,29.92,SSE,162,6.0,10.0,67,0.00,FEW,FEW,0.17,WeatherDisplay:10.37,2013-02-23 22:57:00,
2013-02-23 17:03:00,34.3,24.8,29.91,SSE,152,8.0,10.0,68,0.00,CLR,CLR,0.17,WeatherDisplay:10.37,2013-02-23 23:03:00,
2013-02-23 17:09:00,33.4,24.3,29.91,SSE,154,7.0,13.0,69,0.00,CLR,CLR,0.17,WeatherDisplay:10.37,2013-02-23 23:09:00,
2013-02-23 17:15:00,33.6,24.5,29.91,SE,142,8.0,12.0,69,0.00,CLR,CLR,0.17,WeatherDisplay:10.37,2013-02-23 23:15:00,
2013-02-23 17:21:00,33.8,24.7,29.91,SE,136,6.0,8.0,69,0.00,CLR,CLR,0.17,WeatherDisplay:10.37,2013-02-23 23:21:00,
2013-02-23 17:27:00,33.3,24.6,29.92,SSE,159,6.0,9.0,70,0.00,CLR,CLR,0.17,WeatherDisplay:10.37,2013-02-23 23:27:00,
2013-02-23 17:33:00,33.3,24.6,29.92,SSE,152,7.0,9.0,70,0.00,CLR,CLR,0.17,WeatherDisplay:10.37,2013-02-23 23:33:00,
2013-02-23 17:39:00,32.9,24.5,29.91,SSE,158,7.0,12.0,71,0.00,CLR,CLR,0.17,WeatherDisplay:10.37,2013-02-23 23:39:00,
2013-02-23 17:45:00,32.9,24.9,29.91,SSE,152,5.0,8.0,72,0.00,CLR,CLR,0.17,WeatherDisplay:10.37,2013-02-23 23:45:00,
2013-02-23 17:51:00,32.7,24.7,29.91,SE,131,6.0,7.0,72,0.00,CLR,CLR,0.17,WeatherDisplay:10.37,2013-02-23 23:51:00,
2013-02-23 17:57:00,32.5,24.5,29.91,SE,138,3.0,6.0,72,0.00,CLR,CLR,0.17,WeatherDisplay:10.37,2013-02-23 23:57:00,
2013-02-23 18:03:00,32.2,24.5,29.90,SE,138,5.0,7.0,73,0.00,FEW,FEW,0.17,WeatherDisplay:10.37,2013-02-24 00:03:00,
2013-02-23 18:09:00,32.0,24.3,29.90,SSE,166,3.0,4.0,73,0.00,FEW,FEW,0.17,WeatherDisplay:10.37,2013-02-24 00:09:00,
2013-02-23 18:15:00,31.6,24.5,29.91,SSE,158,3.0,5.0,75,0.00,FEW,FEW,0.17,WeatherDisplay:10.37,2013-02-24 00:15:00,
2013-02-23 18:21:00,30.9,24.5,29.91,SE,132,3.0,4.0,77,0.00,FEW,FEW,0.17,WeatherDisplay:10.37,2013-02-24 00:21:00,
2013-02-23 18:27:00,30.2,24.5,29.91,NE,52,3.0,4.0,79,0.00,FEW,FEW,0.17,WeatherDisplay:10.37,2013-02-24 00:27:00,
2013-02-23 18:33:00,29.8,24.1,29.91,North,360,3.0,4.0,79,0.00,FEW,FEW,0.17,WeatherDisplay:10.37,2013-02-24 00:33:00,
2013-02-23 18:39:00,29.7,24.3,29.91,North,360,3.0,4.0,80,0.00,FEW,FEW,0.17,WeatherDisplay:10.37,2013-02-24 00:39:00,
2013-02-23 18:45:00,29.4,24.0,29.91,East,79,2.0,4.0,80,0.00,FEW,FEW,0.17,WeatherDisplay:10.37,2013-02-24 00:45:00,
2013-02-23 18:51:00,29.1,24.0,29.92,ESE,110,0.0,0.0,81,0.00,FEW,FEW,0.17,WeatherDisplay:10.37,2013-02-24 00:51:00,
2013-02-23 18:57:00,28.8,23.7,29.92,ESE,111,0.0,0.0,81,0.00,FEW,FEW,0.17,WeatherDisplay:10.37,2013-02-24 00:57:00,
2013-02-23 19:03:00,28.8,23.7,29.92,ESE,120,0.0,0.0,81,0.00,FEW,FEW,0.17,WeatherDisplay:10.37,2013-02-24 01:03:00,
2013-02-23 19:09:00,28.6,23.8,29.92,SE,142,0.0,0.0,82,0.00,FEW,FEW,0.17,WeatherDisplay:10.37,2013-02-24 01:09:00,
2013-02-23 19:15:00,28.4,23.6,29.92,SE,132,0.0,0.0,82,0.00,FEW,FEW,0.17,WeatherDisplay:10.37,2013-02-24 01:15:00,
2013-02-23 19:21:00,28.0,23.3,29.92,ESE,120,0.0,0.0,82,0.00,FEW,FEW,0.17,WeatherDisplay:10.37,2013-02-24 01:21:00,
2013-02-23 19:27:00,27.7,23.5,29.92,ESE,113,0.0,0.0,84,0.00,FEW,FEW,0.17,WeatherDisplay:10.37,2013-02-24 01:27:00,
2013-02-23 19:33:00,27.5,23.3,29.92,ESE,112,0.0,0.0,84,0.00,FEW,FEW,0.17,WeatherDisplay:10.37,2013-02-24 01:33:00,
2013-02-23 19:39:00,27.2,23.3,29.92,ESE,112,0.0,0.0,85,0.00,FEW,FEW,0.17,WeatherDisplay:10.37,2013-02-24 01:39:00,
2013-02-23 19:45:00,27.1,23.2,29.92,ESE,112,0.0,0.0,85,0.00,FEW,FEW,0.17,WeatherDisplay:10.37,2013-02-24 01:45:00,
2013-02-23 19:51:00,26.8,22.9,29.92,ESE,112,0.0,0.0,85,0.00,FEW,FEW,0.17,WeatherDisplay:10.37,2013-02-24 01:51:00,
2013-02-23 19:57:00,26.8,22.9,29.92,ESE,112,0.0,0.0,85,0.00,FEW,FEW,0.17,WeatherDisplay:10.37,2013-02-24 01:57:00,
2013-02-23 20:03:00,26.8,22.9,29.92,ESE,112,0.0,0.0,85,0.00,FEW,FEW,0.17,WeatherDisplay:10.37,2013-02-24 02:03:00,
2013-02-23 20:09:00,26.6,23.0,29.92,ESE,112,0.0,0.0,86,0.00,FEW,FEW,0.17,WeatherDisplay:10.37,2013-02-24 02:09:00,
2013-02-23 20:15:00,26.4,22.8,29.91,ESE,112,0.0,0.0,86,0.00,FEW,FEW,0.17,WeatherDisplay:10.37,2013-02-24 02:15:00,
2013-02-23 20:21:00,26.1,22.8,29.91,ESE,112,0.0,0.0,87,0.00,FEW,FEW,0.17,WeatherDisplay:10.37,2013-02-24 02:21:00,
2013-02-23 20:27:00,26.1,22.8,29.92,ESE,112,0.0,0.0,87,0.00,FEW,FEW,0.17,WeatherDisplay:10.37,2013-02-24 02:27:00,
2013-02-23 20:33:00,25.9,22.6,29.92,ESE,112,0.0,0.0,87,0.00,FEW,FEW,0.17,WeatherDisplay:10.37,2013-02-24 02:33:00,
2013-02-23 20:39:00,25.5,22.2,29.92,ESE,112,0.0,0.0,87,0.00,FEW,FEW,0.17,WeatherDisplay:10.37,2013-02-24 02:39:00,
2013-02-23 20:45:00,25.3,22.2,29.92,ESE,112,0.0,0.0,88,0.00,FEW,FEW,0.17,WeatherDisplay:10.37,2013-02-24 02:45:00,
2013-02-23 20:51:00,25.2,22.4,29.92,ESE,112,0.0,0.0,89,0.00,FEW,FEW,0.17,WeatherDisplay:10.37,2013-02-24 02:51:00,
2013-02-23 20:57:00,25.0,22.2,29.92,ESE,112,0.0,0.0,89,0.00,FEW,FEW,0.17,WeatherDisplay:10.37,2013-02-24 02:57:00,
2013-02-23 21:03:00,24.6,21.8,29.92,ESE,112,0.0,0.0,89,0.00,FEW,FEW,0.17,WeatherDisplay:10.37,2013-02-24 03:03:00,
2013-02-23 21:09:00,24.4,21.6,29.92,ESE,112,0.0,0.0,89,0.00,FEW,FEW,0.17,WeatherDisplay:10.37,2013-02-24 03:09:00,
2013-02-23 21:15:00,24.3,22.1,29.92,ESE,106,0.0,0.0,91,0.00,FEW,FEW,0.17,WeatherDisplay:10.37,2013-02-24 03:15:00,
2013-02-23 21:21:00,24.3,22.3,29.92,ESE,104,0.0,0.0,92,0.00,FEW,FEW,0.17,WeatherDisplay:10.37,2013-02-24 03:21:00,
2013-02-23 21:27:00,24.3,22.3,29.92,ESE,111,0.0,0.0,92,0.00,FEW,FEW,0.17,WeatherDisplay:10.37,2013-02-24 03:27:00,
2013-02-23 21:33:00,24.3,22.3,29.92,ESE,112,0.0,0.0,92,0.00,FEW,FEW,0.17,WeatherDisplay:10.37,2013-02-24 03:33:00,
2013-02-23 21:39:00,24.3,22.3,29.93,ESE,112,0.0,0.0,92,0.00,FEW,FEW,0.17,WeatherDisplay:10.37,2013-02-24 03:39:00,
2013-02-23 21:45:00,24.3,22.3,29.93,ESE,112,0.0,0.0,92,0.00,FEW,FEW,0.17,WeatherDisplay:10.37,2013-02-24 03:45:00,
2013-02-23 21:51:00,24.3,22.3,29.92,ESE,112,0.0,0.0,92,0.00,FEW,FEW,0.17,WeatherDisplay:10.37,2013-02-24 03:51:00,
2013-02-23 21:57:00,24.6,22.6,29.92,ESE,109,0.0,0.0,92,0.00,FEW,FEW,0.17,WeatherDisplay:10.37,2013-02-24 03:57:00,
2013-02-23 22:03:00,24.8,22.5,29.93,ESE,112,0.0,0.0,91,0.00,FEW,FEW,0.17,WeatherDisplay:10.37,2013-02-24 04:03:00,
2013-02-23 22:09:00,25.0,22.7,29.93,ESE,112,0.0,0.0,91,0.00,FEW,FEW,0.17,WeatherDisplay:10.37,2013-02-24 04:09:00,
2013-02-23 22:15:00,25.2,22.4,29.92,ESE,115,0.0,0.0,89,0.00,FEW,FEW,0.17,WeatherDisplay:10.37,2013-02-24 04:15:00,
2013-02-23 22:21:00,25.3,22.5,29.92,ESE,115,0.0,0.0,89,0.00,FEW,FEW,0.17,WeatherDisplay:10.37,2013-02-24 04:21:00,
2013-02-23 22:27:00,25.5,22.7,29.93,ESE,115,0.0,0.0,89,0.00,FEW,FEW,0.17,WeatherDisplay:10.37,2013-02-24 04:27:00,
2013-02-23 22:33:00,25.7,22.6,29.93,SE,124,0.0,0.0,88,0.00,FEW,FEW,0.17,WeatherDisplay:10.37,2013-02-24 04:33:00,
2013-02-23 22:39:00,25.9,22.8,29.93,SE,127,0.0,0.0,88,0.00,FEW,FEW,0.17,WeatherDisplay:10.37,2013-02-24 04:39:00,
2013-02-23 22:45:00,26.1,23.0,29.93,SE,132,0.0,0.0,88,0.00,FEW,FEW,0.17,WeatherDisplay:10.37,2013-02-24 04:45:00,
2013-02-23 22:51:00,26.1,22.8,29.93,SE,130,0.0,0.0,87,0.00,FEW,FEW,0.17,WeatherDisplay:10.37,2013-02-24 04:51:00,
2013-02-23 22:57:00,26.1,22.8,29.93,ESE,117,3.0,5.0,87,0.00,FEW,FEW,0.17,WeatherDisplay:10.37,2013-02-24 04:57:00,
2013-02-23 23:00:00,26.1,22.8,29.93,ESE,113,2.0,4.0,87,0.00,FEW,FEW,0.17,WeatherDisplay:10.37,2013-02-24 05:00:00,
2013-02-23 23:06:00,26.1,22.8,29.93,ESE,114,0.0,0.0,87,0.00,FEW,FEW,0.17,WeatherDisplay:10.37,2013-02-24 05:06:00,
2013-02-23 23:09:00,26.1,22.8,29.93,ESE,107,0.0,0.0,87,0.00,FEW,FEW,0.17,WeatherDisplay:10.37,2013-02-24 05:09:00,
2013-02-23 23:15:00,26.1,22.8,29.93,ESE,103,0.0,0.0,87,0.00,FEW,FEW,0.17,WeatherDisplay:10.37,2013-02-24 05:15:00,
2013-02-23 23:18:00,26.1,22.8,29.93,ESE,109,0.0,0.0,87,0.00,FEW,FEW,0.17,WeatherDisplay:10.37,2013-02-24 05:18:00,
2013-02-23 23:24:00,26.1,22.8,29.93,ESE,113,0.0,0.0,87,0.00,FEW,FEW,0.17,WeatherDisplay:10.37,2013-02-24 05:24:00,
2013-02-23 23:30:00,26.1,22.8,29.93,ESE,115,0.0,0.0,87,0.00,FEW,FEW,0.17,WeatherDisplay:10.37,2013-02-24 05:30:00,
2013-02-23 23:36:00,25.9,22.6,29.92,ESE,116,0.0,0.0,87,0.00,FEW,FEW,0.17,WeatherDisplay:10.37,2013-02-24 05:36:00,
2013-02-23 23:42:00,25.7,22.6,29.92,ESE,114,0.0,0.0,88,0.00,FEW,FEW,0.17,WeatherDisplay:10.37,2013-02-24 05:42:00,
2013-02-23 23:45:00,25.7,22.6,29.92,ESE,116,0.0,0.0,88,0.00,FEW,FEW,0.17,WeatherDisplay:10.37,2013-02-24 05:45:00,
2013-02-23 23:51:00,25.5,22.5,29.92,ESE,120,0.0,0.0,88,0.00,FEW,FEW,0.17,WeatherDisplay:10.37,2013-02-24 05:51:00,
2013-02-23 23:57:00,25.7,22.6,29.92,ESE,118,0.0,0.0,88,0.00,FEW,FEW,0.17,WeatherDisplay:10.37,2013-02-24 05:57:00,